createdAt,value
2022-09-17T00:02:10.532Z,52.75
2022-09-17T00:04:37.162Z,52.19
2022-09-17T00:07:04.255Z,52.25
2022-09-17T00:09:31.297Z,53.16
2022-09-17T00:11:57.776Z,52.79
2022-09-17T00:14:24.232Z,52.71
2022-09-17T00:16:50.728Z,52.35
2022-09-17T00:19:18.649Z,52.44
2022-09-17T00:21:45.203Z,52.40
2022-09-17T00:24:12.789Z,52.30
2022-09-17T00:26:39.215Z,52.24
2022-09-17T00:29:05.747Z,52.32
2022-09-17T00:31:33.065Z,52.89
2022-09-17T00:34:00.204Z,53.35
2022-09-17T00:36:26.813Z,53.49
2022-09-17T00:38:54.373Z,53.93
2022-09-17T00:41:21.750Z,53.82
2022-09-17T00:43:50.894Z,54.51
2022-09-17T00:46:30.483Z,54.13
2022-09-17T00:48:59.258Z,53.63
2022-09-17T00:51:28.862Z,53.62
2022-09-17T00:53:56.037Z,53.51
2022-09-17T00:56:24.165Z,53.38
2022-09-17T00:58:51.763Z,53.81
2022-09-17T01:01:18.533Z,54.54
2022-09-17T01:03:45.071Z,54.66
2022-09-17T01:06:30.440Z,54.47
2022-09-17T01:09:15.262Z,54.36
2022-09-17T01:12:10.902Z,54.51
2022-09-17T01:14:52.938Z,54.48
2022-09-17T01:17:24.849Z,54.03
2022-09-17T01:20:06.565Z,54.58
2022-09-17T01:22:46.740Z,54.81
2022-09-17T01:25:13.446Z,54.78
2022-09-17T01:28:01.961Z,54.50
2022-09-17T01:30:32.496Z,54.79
2022-09-17T01:33:04.979Z,54.41
2022-09-17T01:35:40.620Z,54.86
2022-09-17T01:38:36.632Z,54.72
2022-09-17T01:41:12.481Z,54.95
2022-09-17T01:43:44.534Z,55.19
2022-09-17T01:46:18.850Z,54.93
2022-09-17T01:48:47.155Z,54.41
2022-09-17T01:51:22.570Z,54.87
2022-09-17T01:53:58.219Z,54.72
2022-09-17T01:56:38.398Z,55.01
2022-09-17T01:59:10.040Z,55.03
2022-09-17T02:01:39.373Z,55.10
2022-09-17T02:04:18.862Z,54.79
2022-09-17T02:06:48.130Z,54.75
2022-09-17T02:09:17.194Z,54.95
2022-09-17T02:11:46.318Z,55.11
2022-09-17T02:14:15.271Z,55.73
2022-09-17T02:16:46.323Z,55.45
2022-09-17T02:19:16.353Z,55.76
2022-09-17T02:21:48.089Z,55.28
2022-09-17T02:24:24.719Z,55.69
2022-09-17T02:26:56.594Z,55.43
2022-09-17T02:29:26.592Z,56.04
2022-09-17T02:31:53.084Z,56.06
2022-09-17T02:34:20.244Z,56.38
2022-09-17T02:36:46.909Z,55.64
2022-09-17T02:39:13.386Z,56.01
2022-09-17T02:41:46.940Z,55.95
2022-09-17T02:44:22.796Z,55.67
2022-09-17T02:47:07.962Z,55.79
2022-09-17T02:49:50.134Z,56.36
2022-09-17T02:52:35.477Z,56.39
2022-09-17T02:55:17.336Z,56.37
2022-09-17T02:57:56.166Z,56.41
2022-09-17T03:00:22.999Z,56.65
2022-09-17T03:02:56.184Z,56.29
2022-09-17T03:05:23.284Z,56.34
2022-09-17T03:07:50.494Z,56.81
2022-09-17T03:10:17.688Z,56.31
2022-09-17T03:12:44.120Z,56.28
2022-09-17T03:15:10.736Z,56.32
2022-09-17T03:17:37.387Z,55.55
2022-09-17T03:20:04.106Z,55.73
2022-09-17T03:22:30.519Z,55.21
2022-09-17T03:24:56.949Z,55.09
2022-09-17T03:27:23.377Z,54.94
2022-09-17T03:29:49.783Z,54.40
2022-09-17T03:32:16.207Z,54.41
2022-09-17T03:34:42.666Z,55.00
2022-09-17T03:37:09.197Z,54.80
2022-09-17T03:39:35.849Z,55.00
2022-09-17T03:42:02.283Z,54.84
2022-09-17T03:44:28.739Z,53.71
2022-09-17T03:46:55.216Z,54.32
2022-09-17T03:49:23.778Z,54.78
2022-09-17T03:51:50.494Z,54.41
2022-09-17T03:54:17.542Z,54.84
2022-09-17T03:56:43.979Z,54.52
2022-09-17T03:59:10.400Z,55.30
2022-09-17T04:01:36.926Z,54.62
2022-09-17T04:04:04.253Z,54.31
2022-09-17T04:06:30.967Z,54.84
2022-09-17T04:08:57.407Z,54.50
2022-09-17T04:11:23.853Z,54.09
2022-09-17T04:13:50.330Z,54.70
2022-09-17T04:16:16.883Z,54.69
2022-09-17T04:18:43.389Z,54.38
2022-09-17T04:21:10.053Z,53.98
2022-09-17T04:23:36.548Z,54.41
2022-09-17T04:26:03.088Z,54.53
2022-09-17T04:28:29.575Z,54.29
2022-09-17T04:30:56.002Z,54.74
2022-09-17T04:33:22.531Z,54.46
2022-09-17T04:35:49.406Z,54.43
2022-09-17T04:38:18.532Z,54.39
2022-09-17T04:40:46.465Z,54.38
2022-09-17T04:43:12.959Z,53.90
2022-09-17T04:45:39.418Z,53.57
2022-09-17T04:48:06.046Z,53.90
2022-09-17T04:50:32.479Z,53.50
2022-09-17T04:52:59.023Z,53.19
2022-09-17T04:55:26.431Z,53.27
2022-09-17T04:57:53.447Z,53.82
2022-09-17T05:00:21.185Z,54.63
2022-09-17T05:02:49.254Z,54.23
2022-09-17T05:05:16.413Z,54.51
2022-09-17T05:07:43.006Z,54.57
2022-09-17T05:10:10.405Z,54.48
2022-09-17T05:12:36.884Z,54.24
2022-09-17T05:15:04.014Z,53.81
2022-09-17T05:17:30.427Z,53.80
2022-09-17T05:19:56.840Z,54.36
2022-09-17T05:22:23.251Z,54.38
2022-09-17T05:24:49.757Z,54.23
2022-09-17T05:27:16.149Z,54.18
2022-09-17T05:29:42.548Z,54.52
2022-09-17T05:32:08.984Z,54.07
2022-09-17T05:34:35.627Z,53.66
2022-09-17T05:37:02.175Z,53.96
2022-09-17T05:39:28.889Z,53.93
2022-09-17T05:41:55.532Z,53.68
2022-09-17T05:44:22.000Z,53.75
2022-09-17T05:46:48.500Z,53.80
2022-09-17T05:49:17.996Z,54.05
2022-09-17T05:51:44.397Z,54.02
2022-09-17T05:54:10.870Z,54.14
2022-09-17T05:56:37.309Z,53.98
2022-09-17T05:59:03.732Z,53.88
2022-09-17T06:01:30.187Z,53.83
2022-09-17T06:03:56.696Z,53.54
2022-09-17T06:06:23.283Z,54.04
2022-09-17T06:08:49.771Z,53.79
2022-09-17T06:11:16.233Z,53.83
2022-09-17T06:13:43.731Z,53.59
2022-09-17T06:16:10.217Z,53.38
2022-09-17T06:18:36.659Z,53.37
2022-09-17T06:21:03.991Z,53.66
2022-09-17T06:23:37.202Z,54.00
2022-09-17T06:26:04.804Z,53.64
2022-09-17T06:28:31.972Z,53.15
2022-09-17T06:31:06.040Z,52.96
2022-09-17T06:33:32.735Z,53.32
2022-09-17T06:36:00.884Z,53.31
2022-09-17T06:38:31.753Z,53.14
2022-09-17T06:40:58.476Z,52.83
2022-09-17T06:43:25.471Z,52.45
2022-09-17T06:45:52.853Z,52.12
2022-09-17T06:48:19.555Z,51.43
2022-09-17T06:50:45.958Z,51.85
2022-09-17T06:53:12.432Z,51.99
2022-09-17T06:55:38.793Z,51.75
2022-09-17T06:58:05.231Z,52.03
2022-09-17T07:00:32.258Z,51.85
2022-09-17T07:02:59.609Z,51.00
2022-09-17T07:05:26.762Z,51.03
2022-09-17T07:07:53.317Z,50.47
2022-09-17T07:10:20.475Z,50.35
2022-09-17T07:12:49.945Z,49.77
2022-09-17T07:15:17.071Z,49.38
2022-09-17T07:17:44.490Z,49.69
2022-09-17T07:20:11.537Z,49.74
2022-09-17T07:22:37.992Z,49.75
2022-09-17T07:25:05.187Z,50.20
2022-09-17T07:27:31.991Z,50.24
2022-09-17T07:29:58.536Z,51.16
2022-09-17T07:32:25.660Z,50.99
2022-09-17T07:34:52.191Z,50.66
2022-09-17T07:37:18.841Z,50.58
2022-09-17T07:39:45.309Z,50.62
2022-09-17T07:42:11.772Z,51.01
2022-09-17T07:44:38.192Z,50.32
2022-09-17T07:47:04.953Z,50.60
2022-09-17T07:49:31.376Z,50.40
2022-09-17T07:51:59.886Z,50.51
2022-09-17T07:54:26.412Z,50.44
2022-09-17T07:56:52.877Z,49.33
2022-09-17T07:59:21.127Z,48.44
2022-09-17T08:01:48.323Z,48.45
2022-09-17T08:04:14.970Z,48.15
2022-09-17T08:06:41.396Z,48.41
2022-09-17T08:09:09.863Z,47.57
2022-09-17T08:11:56.114Z,47.92
2022-09-17T08:14:28.477Z,47.94
2022-09-17T08:16:56.117Z,47.94
2022-09-17T08:19:22.567Z,48.28
2022-09-17T08:21:49.040Z,47.28
2022-09-17T08:24:15.484Z,48.00
2022-09-17T08:26:42.058Z,47.93
2022-09-17T08:29:08.605Z,47.73
2022-09-17T08:31:35.218Z,47.94
2022-09-17T08:34:01.883Z,47.23
2022-09-17T08:36:28.473Z,45.34
2022-09-17T08:38:55.763Z,43.77
2022-09-17T08:41:25.567Z,44.33
2022-09-17T08:43:55.001Z,43.52
2022-09-17T08:46:21.672Z,43.54
2022-09-17T08:49:02.041Z,43.38
2022-09-17T08:51:42.806Z,42.49
2022-09-17T08:54:35.315Z,41.83
2022-09-17T08:57:10.818Z,41.47
2022-09-17T08:59:43.435Z,40.57
2022-09-17T09:02:09.898Z,40.64
2022-09-17T09:04:43.988Z,40.45
2022-09-17T09:07:13.283Z,40.97
2022-09-17T09:09:41.889Z,42.03
2022-09-17T09:12:15.641Z,41.11
2022-09-17T09:14:50.256Z,40.16
2022-09-17T09:17:18.419Z,40.92
2022-09-17T09:19:46.507Z,41.46
2022-09-17T09:22:37.553Z,41.25
2022-09-17T09:25:18.240Z,41.75
2022-09-17T09:27:54.331Z,42.33
2022-09-17T09:30:23.734Z,34.74
2022-09-17T09:32:59.437Z,25.16
2022-09-17T09:35:31.290Z,21.52
2022-09-17T09:38:01.749Z,19.78
2022-09-17T09:40:32.006Z,20.56
2022-09-17T09:43:00.932Z,23.31
2022-09-17T09:45:54.522Z,25.64
2022-09-17T09:48:33.168Z,27.02
2022-09-17T09:51:11.937Z,26.62
2022-09-17T09:53:38.352Z,25.10
2022-09-17T09:56:25.318Z,22.10
2022-09-17T09:58:52.105Z,19.92
2022-09-17T10:01:23.063Z,23.09
2022-09-17T10:03:52.186Z,24.04
2022-09-17T10:06:19.862Z,26.83
2022-09-17T10:08:55.622Z,28.75
2022-09-17T10:11:24.062Z,29.97
2022-09-17T10:13:50.575Z,31.29
2022-09-17T10:16:18.235Z,32.09
2022-09-17T10:18:45.128Z,33.04
2022-09-17T10:21:22.301Z,33.12
2022-09-17T10:23:49.983Z,32.72
2022-09-17T10:26:24.502Z,28.09
2022-09-17T10:28:53.781Z,22.53
2022-09-17T10:31:20.898Z,18.99
2022-09-17T10:33:54.352Z,15.14
2022-09-17T10:36:40.296Z,13.32
2022-09-17T10:39:25.404Z,13.69
2022-09-17T10:41:56.175Z,12.63
2022-09-17T10:44:24.166Z,14.53
2022-09-17T10:46:51.185Z,17.19
2022-09-17T10:49:38.454Z,20.08
2022-09-17T10:52:10.439Z,20.17
2022-09-17T10:54:42.906Z,21.66
2022-09-17T10:57:13.685Z,22.97
2022-09-17T10:59:40.159Z,25.15
2022-09-17T11:02:25.564Z,25.02
2022-09-17T11:05:03.676Z,26.45
2022-09-17T11:07:42.391Z,27.01
2022-09-17T11:10:22.220Z,29.27
2022-09-17T11:12:48.638Z,29.16
2022-09-17T11:15:23.054Z,29.13
2022-09-17T11:18:25.122Z,27.93
2022-09-17T11:21:10.359Z,27.09
2022-09-17T11:23:45.960Z,26.88
2022-09-17T11:26:12.471Z,27.42
2022-09-17T11:28:51.505Z,25.97
2022-09-17T11:31:24.715Z,26.80
2022-09-17T11:34:10.058Z,26.68
2022-09-17T11:36:57.167Z,27.26
2022-09-17T11:39:37.797Z,27.24
2022-09-17T11:42:07.889Z,28.79
2022-09-17T11:44:57.717Z,28.41
2022-09-17T11:47:29.466Z,28.69
2022-09-17T11:50:03.268Z,29.25
2022-09-17T11:52:42.649Z,29.36
2022-09-17T11:55:21.714Z,30.03
2022-09-17T11:57:50.836Z,29.45
2022-09-17T12:00:18.892Z,28.61
2022-09-17T12:03:00.250Z,28.65
2022-09-17T12:05:33.549Z,28.84
2022-09-17T12:08:25.591Z,28.91
2022-09-17T12:10:55.824Z,28.91
2022-09-17T12:13:22.236Z,28.73
2022-09-17T12:15:53.411Z,27.39
2022-09-17T12:18:32.686Z,26.24
2022-09-17T12:21:01.957Z,25.73
2022-09-17T12:23:33.906Z,26.69
2022-09-17T12:26:06.378Z,26.89
2022-09-17T12:28:48.271Z,27.62
2022-09-17T12:31:21.393Z,28.31
2022-09-17T12:33:52.913Z,27.45
2022-09-17T12:36:24.596Z,28.41
2022-09-17T12:39:02.618Z,29.39
2022-09-17T12:41:32.620Z,30.03
2022-09-17T12:44:19.062Z,30.38
2022-09-17T12:46:52.835Z,30.85
2022-09-17T12:49:25.428Z,31.28
2022-09-17T12:51:57.185Z,31.33
2022-09-17T12:54:35.974Z,32.19
2022-09-17T12:57:12.537Z,33.21
2022-09-17T12:59:46.149Z,33.45
2022-09-17T13:02:17.991Z,33.03
2022-09-17T13:05:01.266Z,32.66
2022-09-17T13:07:35.800Z,32.23
2022-09-17T13:10:25.366Z,31.89
2022-09-17T13:13:18.215Z,31.87
2022-09-17T13:16:19.926Z,31.64
2022-09-17T13:19:16.223Z,32.21
2022-09-17T13:22:15.771Z,32.85
2022-09-17T13:24:47.008Z,33.11
2022-09-17T13:27:23.228Z,33.51
2022-09-17T13:29:55.792Z,33.97
2022-09-17T13:32:34.699Z,33.80
2022-09-17T13:35:10.167Z,33.36
2022-09-17T13:37:42.864Z,32.45
2022-09-17T13:40:26.463Z,33.18
2022-09-17T13:42:57.564Z,32.88
2022-09-17T13:45:25.140Z,33.03
2022-09-17T13:48:04.033Z,32.76
2022-09-17T13:50:40.601Z,33.29
2022-09-17T13:53:16.963Z,32.97
2022-09-17T13:55:43.596Z,32.73
2022-09-17T13:58:30.315Z,32.44
2022-09-17T14:00:59.006Z,32.47
2022-09-17T14:03:28.592Z,33.38
2022-09-17T14:05:55.292Z,34.25
2022-09-17T14:08:30.526Z,34.76
2022-09-17T14:10:58.800Z,35.14
2022-09-17T14:13:42.527Z,34.49
2022-09-17T14:16:24.473Z,34.64
2022-09-17T14:19:17.284Z,34.68
2022-09-17T14:21:46.347Z,33.89
2022-09-17T14:24:23.025Z,33.70
2022-09-17T14:26:49.476Z,32.96
2022-09-17T14:29:48.728Z,32.90
2022-09-17T14:32:20.924Z,33.09
2022-09-17T14:34:48.397Z,32.40
2022-09-17T14:37:18.681Z,32.93
2022-09-17T14:39:46.318Z,33.13
2022-09-17T14:42:19.928Z,33.30
2022-09-17T14:45:06.653Z,32.89
2022-09-17T14:47:33.106Z,31.15
2022-09-17T14:50:29.359Z,31.97
2022-09-17T14:52:55.774Z,32.48
2022-09-17T14:55:26.594Z,32.07
2022-09-17T14:57:54.505Z,33.00
2022-09-17T15:00:25.092Z,33.23
2022-09-17T15:02:54.111Z,33.75
2022-09-17T15:05:23.528Z,34.30
2022-09-17T15:07:50.614Z,34.79
2022-09-17T15:10:18.602Z,34.89
2022-09-17T15:12:46.423Z,35.24
2022-09-17T15:15:20.971Z,35.79
2022-09-17T15:17:48.593Z,35.51
2022-09-17T15:20:33.111Z,35.94
2022-09-17T15:23:17.798Z,35.77
2022-09-17T15:25:45.982Z,35.53
2022-09-17T15:28:19.550Z,35.60
2022-09-17T15:30:49.936Z,36.05
2022-09-17T15:33:19.110Z,36.57
2022-09-17T15:35:59.284Z,37.22
2022-09-17T15:38:29.988Z,37.93
2022-09-17T15:41:11.062Z,38.08
2022-09-17T15:43:38.532Z,38.24
2022-09-17T15:46:24.707Z,38.25
2022-09-17T15:48:51.442Z,37.04
2022-09-17T15:51:26.420Z,37.05
2022-09-17T15:53:58.113Z,36.92
2022-09-17T15:56:35.575Z,35.82
2022-09-17T15:59:02.095Z,35.96
2022-09-17T16:01:41.006Z,35.92
2022-09-17T16:04:09.031Z,36.33
2022-09-17T16:06:36.566Z,36.27
2022-09-17T16:09:03.471Z,36.78
2022-09-17T16:11:31.271Z,37.89
2022-09-17T16:13:59.106Z,38.28
2022-09-17T16:16:33.419Z,38.42
2022-09-17T16:19:00.012Z,38.89
2022-09-17T16:21:26.801Z,38.97
2022-09-17T16:23:54.033Z,38.94
2022-09-17T16:26:23.314Z,40.51
2022-09-17T16:28:53.113Z,41.59
2022-09-17T16:31:19.934Z,41.71
2022-09-17T16:33:46.619Z,42.27
2022-09-17T16:36:16.029Z,45.00
2022-09-17T16:38:42.771Z,46.79
2022-09-17T16:41:09.719Z,47.39
2022-09-17T16:43:37.094Z,48.49
2022-09-17T16:46:04.997Z,48.17
2022-09-17T16:48:31.961Z,49.00
2022-09-17T16:50:58.648Z,48.37
2022-09-17T16:53:25.540Z,47.04
2022-09-17T16:55:52.081Z,46.47
2022-09-17T16:58:18.596Z,47.79
2022-09-17T17:00:45.701Z,49.78
2022-09-17T17:03:13.767Z,50.23
2022-09-17T17:05:40.692Z,49.95
2022-09-17T17:08:07.826Z,50.94
2022-09-17T17:10:34.969Z,50.86
2022-09-17T17:13:01.845Z,50.45
2022-09-17T17:15:28.314Z,51.23
2022-09-17T17:17:54.800Z,50.85
2022-09-17T17:20:21.422Z,50.71
2022-09-17T17:22:47.901Z,51.61
2022-09-17T17:25:14.554Z,51.59
2022-09-17T17:27:41.140Z,51.33
2022-09-17T17:30:08.989Z,51.37
2022-09-17T17:32:36.507Z,51.03
2022-09-17T17:35:03.697Z,50.98
2022-09-17T17:37:30.219Z,51.16
2022-09-17T17:39:58.190Z,51.97
2022-09-17T17:42:24.844Z,52.09
2022-09-17T17:44:51.462Z,51.55
2022-09-17T17:47:17.847Z,52.51
2022-09-17T17:49:44.638Z,52.82
2022-09-17T17:52:11.276Z,53.09
2022-09-17T17:54:37.964Z,53.27
2022-09-17T17:57:04.461Z,52.90
2022-09-17T17:59:30.989Z,54.25
2022-09-17T18:01:57.662Z,53.52
2022-09-17T18:04:24.396Z,53.16
2022-09-17T18:06:51.030Z,53.37
2022-09-17T18:09:17.645Z,52.19
2022-09-17T18:11:44.192Z,52.26
2022-09-17T18:14:12.158Z,52.74
2022-09-17T18:16:38.906Z,52.77
2022-09-17T18:19:07.620Z,52.93
2022-09-17T18:21:34.308Z,51.74
2022-09-17T18:24:00.856Z,52.38
2022-09-17T18:26:27.657Z,52.90
2022-09-17T18:28:54.609Z,52.91
2022-09-17T18:31:25.615Z,52.26
2022-09-17T18:34:00.149Z,52.35
2022-09-17T18:36:27.987Z,51.83
2022-09-17T18:38:56.407Z,52.58
2022-09-17T18:41:22.937Z,51.84
2022-09-17T18:43:49.725Z,51.47
2022-09-17T18:46:16.627Z,51.55
2022-09-17T18:48:45.108Z,51.38
2022-09-17T18:51:12.796Z,51.66
2022-09-17T18:53:39.220Z,51.94
2022-09-17T18:56:10.131Z,52.68
2022-09-17T18:58:36.728Z,52.79
2022-09-17T19:01:06.942Z,53.77
2022-09-17T19:03:33.623Z,54.31
2022-09-17T19:08:41.783Z,53.95
2022-09-17T19:11:08.716Z,53.65
2022-09-17T19:13:36.258Z,54.64
2022-09-17T19:16:03.605Z,55.12
2022-09-17T19:18:30.366Z,54.88
2022-09-17T19:21:04.055Z,54.58
2022-09-17T19:23:31.628Z,52.99
2022-09-17T19:26:04.829Z,53.18
2022-09-17T19:28:31.263Z,53.70
2022-09-17T19:30:57.819Z,53.74
2022-09-17T19:33:24.334Z,53.03
2022-09-17T19:35:51.099Z,52.10
2022-09-17T19:38:17.900Z,52.58
2022-09-17T19:40:45.265Z,53.85
2022-09-17T19:43:11.816Z,52.98
2022-09-17T19:45:38.447Z,53.90
2022-09-17T19:48:04.949Z,54.25
2022-09-17T19:50:31.850Z,54.30
2022-09-17T19:52:58.376Z,54.37
2022-09-17T19:55:24.930Z,54.95
2022-09-17T19:57:51.522Z,55.14
2022-09-17T20:00:18.821Z,54.64
2022-09-17T20:02:45.696Z,54.57
2022-09-17T20:05:12.391Z,54.98
2022-09-17T20:07:39.023Z,55.29
2022-09-17T20:10:05.658Z,54.94
2022-09-17T20:12:32.159Z,54.92
2022-09-17T20:14:58.632Z,54.27
2022-09-17T20:17:25.178Z,54.62
2022-09-17T20:19:51.998Z,54.82
2022-09-17T20:22:18.539Z,54.04
2022-09-17T20:24:50.286Z,54.08
2022-09-17T20:27:17.754Z,54.35
2022-09-17T20:29:44.285Z,54.51
2022-09-17T20:32:11.194Z,54.19
2022-09-17T20:34:37.669Z,54.06
2022-09-17T20:37:13.096Z,53.99
2022-09-17T20:39:40.282Z,54.29
2022-09-17T20:42:06.782Z,54.35
2022-09-17T20:44:33.369Z,54.24
2022-09-17T20:47:01.382Z,53.66
2022-09-17T20:49:28.062Z,53.50
2022-09-17T20:51:54.524Z,53.75
2022-09-17T20:54:20.993Z,53.61
2022-09-17T20:56:47.466Z,53.64
2022-09-17T20:59:17.365Z,53.93
2022-09-17T21:01:49.373Z,53.40
2022-09-17T21:04:19.014Z,54.10
2022-09-17T21:06:46.067Z,54.26
2022-09-17T21:09:16.015Z,53.59
2022-09-17T21:11:43.736Z,54.03
2022-09-17T21:14:11.417Z,53.48
2022-09-17T21:16:38.385Z,54.17
2022-09-17T21:19:07.063Z,53.55
2022-09-17T21:21:34.545Z,53.50
2022-09-17T21:24:02.373Z,53.86
2022-09-17T21:26:29.217Z,53.11
2022-09-17T21:28:56.430Z,53.71
2022-09-17T21:31:26.340Z,54.26
2022-09-17T21:33:57.523Z,53.88
2022-09-17T21:36:25.228Z,54.16
2022-09-17T21:38:59.117Z,53.92
2022-09-17T21:41:25.972Z,53.88
2022-09-17T21:43:52.795Z,53.61
2022-09-17T21:46:21.470Z,54.10
2022-09-17T21:48:49.671Z,53.95
2022-09-17T21:51:20.578Z,53.66
2022-09-17T21:53:49.949Z,53.30
2022-09-17T21:56:17.463Z,53.11
2022-09-17T21:58:45.114Z,52.94
2022-09-17T22:01:16.653Z,52.84
2022-09-17T22:03:43.828Z,52.84
2022-09-17T22:06:12.388Z,52.95
2022-09-17T22:08:39.268Z,52.50
2022-09-17T22:11:07.460Z,52.84
2022-09-17T22:13:34.685Z,51.90
2022-09-17T22:16:04.075Z,52.64
2022-09-17T22:18:31.467Z,52.57
2022-09-17T22:20:58.977Z,52.14
2022-09-17T22:23:26.294Z,52.82
2022-09-17T22:26:02.868Z,53.06
2022-09-17T22:28:29.855Z,52.55
2022-09-17T22:30:56.719Z,52.56
2022-09-17T22:33:23.216Z,52.41
2022-09-17T22:35:49.685Z,52.83
2022-09-17T22:38:16.323Z,52.95
2022-09-17T22:40:42.777Z,52.37
2022-09-17T22:43:09.239Z,53.16
2022-09-17T22:45:36.004Z,53.09
2022-09-17T22:48:03.970Z,52.98
2022-09-17T22:50:30.453Z,52.64
2022-09-17T22:52:56.916Z,53.40
2022-09-17T22:55:23.421Z,52.96
2022-09-17T22:57:49.885Z,52.75
2022-09-17T23:00:17.542Z,52.98
2022-09-17T23:02:44.119Z,52.94
2022-09-17T23:05:10.587Z,52.69
2022-09-17T23:07:37.873Z,53.18
2022-09-17T23:10:04.691Z,52.74
2022-09-17T23:12:31.161Z,53.14
2022-09-17T23:14:57.586Z,52.95
2022-09-17T23:17:29.166Z,52.55
2022-09-17T23:19:56.109Z,52.87
2022-09-17T23:22:23.171Z,52.94
2022-09-17T23:24:49.966Z,52.64
2022-09-17T23:27:16.421Z,52.63
2022-09-17T23:29:42.872Z,52.61
2022-09-17T23:32:09.315Z,51.92
2022-09-17T23:34:37.661Z,52.74
2022-09-17T23:37:04.224Z,52.63
2022-09-17T23:39:30.960Z,53.00
2022-09-17T23:41:57.416Z,52.43
2022-09-17T23:44:23.977Z,52.98
2022-09-17T23:46:50.446Z,53.84
2022-09-17T23:49:17.118Z,53.68
2022-09-17T23:51:46.350Z,53.60
2022-09-17T23:54:12.984Z,54.25
2022-09-17T23:56:39.507Z,53.93
2022-09-17T23:59:07.366Z,54.15
